North Little Rock, AR (72199)

6:36 AM CDT on July 23, 2016 (GMT -0500)
Park Hill | | Change Station
Active Advisory: Heat Advisory Active Notice: Record Report

Elev 417 ft 34.78 °N, 92.27 °W | Updated 10 seconds ago

Partly Cloudy
Partly Cloudy
78.8 °F
Feels Like 83 °F
N
0.0
Wind Variable Wind from ESE
Gusts 0.0 mph

Today
High -- | Low -- °F
--% Chance of Precip.
Yesterday
High -- | Low -- °F
Precip. -- in
Pressure 29.97 in
Visibility 7.0 miles
Clouds Few 25000 ft
Heat Index 83 °F
Dew Point 77 °F
Humidity 94%
Rainfall 0.00 in
Snow Depth Not available.
6:12 AM 8:17 PM
Waning Gibbous, 86% visible
METAR KLIT 231053Z 00000KT 7SM FEW250 27/24 A2997 RMK AO2 SLP149 T02670244
Pressure 29.97 in
Visibility 7.0 miles
Clouds Few 25000 ft
Heat Index 83 °F
Dew Point 77 °F
Humidity 94%
Rainfall 0.00 in
Snow Depth Not available.
6:12 AM 8:17 PM
Waning Gibbous, 86% visible
METAR KLIT 231053Z 00000KT 7SM FEW250 27/24 A2997 RMK AO2 SLP149 T02670244

10-Day Weather Forecast

Almanac

Astronomy

Jul. 23, 2016 Rise Set
Actual Time
Civil Twilight
Nautical Twilight
Astronomical Twilight
Moon
Length of Visible Light
Length of Day
Tomorrow will be .
, % of the Moon is Illuminated

Today's Extremes

State Highs State Lows

Community

WunderPhotos

Upload Photos

1,926,810 photos uploaded!

WunderBlog® & News

Nearby

Air Quality

  Air Quality AQ Index Pollutant
Not available.

Snow Depth

Station Depth Elevation

Earthquake Activity

City Distance Mag. Time & Date
Minimum magnitude displayed is 2.5.

Coastal Water Temperatures

Place Temperature

Stations

Nearby Weather Stations

Station Location Temp. Windchill Dew Point Humidity Wind Precip. Elev Updated Type
                   

Watches & Warnings

Heat Advisory
Issued: 3:33 AM CDT Jul. 23, 2016 – National Weather Service

... Heat advisory remains in effect until 9 PM CDT Sunday...

* event: heat index values will range from 100 to 110 degrees
Saturday and Sunday... during the afternoon and early evening
hours.

* Areas affected: much of Arkansas.

Precautionary/preparedness actions...

A heat advisory means that the combination of hot temperatures
and high humidity will combine to create a situation in which
heat illnesses are possible. Drink plenty of fluids... stay in an
air- conditioned room... stay out of the sun... and check up on
relatives and neighbors.

Take extra precautions... if you work or spend time outside. When
possible... reschedule strenuous activities to early morning or
evening. Know the signs and symptoms of heat exhaustion and heat
stroke. Wear light weight and loose fitting clothing when
possible and drink plenty of water.

To reduce risk during outdoor work... the occupational safety and
health administration recommends scheduling frequent rest breaks
in shaded or air conditioned environments. Anyone overcome by
heat should be moved to a cool and shaded location. Heat stroke
is an emergency... call 9 1 1.



62